Time;durP1;ratioP1;P1;durP2;ratioP2;P2;SDS_P1;SDS_P2;PMS_P1;PMS_P2;Temp;Humidity;BMP_temperature;BMP_pressure;BME280_temperature;BME280_humidity;BME280_pressure;Samples;Min_cycle;Max_cycle;Signal;HPM_P1;HPM_P2
2023/06/15 00:00:20;;;;;;;4.60;4.17;;;;;13.10;96821.00;;;;4971409;28;20219;-72
2023/06/15 00:03:09;;;;;;;5.10;4.60;;;;;13.50;96826.00;;;;4968858;28;20203;-73
2023/06/15 00:05:59;;;;;;;6.30;5.70;;;;;13.80;96818.00;;;;4966031;28;20236;-73
2023/06/15 00:08:48;;;;;;;9.83;5.40;;;;;13.50;96818.00;;;;4973316;28;20211;-74
2023/06/15 00:11:37;;;;;;;5.33;4.83;;;;;13.50;96816.00;;;;4970455;28;20214;-73
2023/06/15 00:14:27;;;;;;;6.20;4.60;;;;;13.40;96822.00;;;;4973591;28;20227;-73
2023/06/15 00:17:16;;;;;;;5.50;4.50;;;;;13.50;96810.00;;;;4976026;28;20199;-74
2023/06/15 00:20:08;;;;;;;9.07;4.60;;;;;13.60;96807.00;;;;4981255;28;20207;-74
2023/06/15 00:23:00;;;;;;;7.23;5.73;;;;;14.00;96805.00;;;;4974656;28;20212;-73
2023/06/15 00:25:49;;;;;;;6.40;5.00;;;;;14.00;96800.00;;;;4972204;28;20251;-73
2023/06/15 00:28:38;;;;;;;6.20;4.70;;;;;14.10;96799.00;;;;4970465;28;20619;-73
2023/06/15 00:31:27;;;;;;;8.03;4.40;;;;;14.20;96790.00;;;;4968995;28;20583;-73
2023/06/15 00:34:16;;;;;;;5.40;4.90;;;;;14.20;96798.00;;;;4970254;28;20231;-73
2023/06/15 00:37:06;;;;;;;6.13;5.53;;;;;14.20;96796.00;;;;4981698;28;20209;-73
2023/06/15 00:39:57;;;;;;;5.70;4.87;;;;;13.80;96787.00;;;;4977954;28;20249;-73
2023/06/15 00:42:46;;;;;;;6.40;5.17;;;;;13.50;96784.00;;;;4970806;28;20208;-73
2023/06/15 00:45:35;;;;;;;5.47;5.00;;;;;13.20;96789.00;;;;4982597;28;20293;-72
2023/06/15 00:48:24;;;;;;;7.23;4.57;;;;;13.70;96792.00;;;;4975699;28;20764;-71
2023/06/15 00:51:13;;;;;;;5.53;4.93;;;;;13.90;96791.00;;;;4976492;28;20211;-72
2023/06/15 00:54:02;;;;;;;11.77;5.33;;;;;13.70;96787.00;;;;4973233;28;20204;-72
2023/06/15 00:56:54;;;;;;;6.27;5.00;;;;;13.50;96794.00;;;;4969832;28;20226;-73
2023/06/15 00:59:43;;;;;;;6.73;4.87;;;;;13.10;96791.00;;;;4974430;28;20746;-73
2023/06/15 01:02:34;;;;;;;5.17;4.57;;;;;13.20;96787.00;;;;4972209;28;20583;-73
2023/06/15 01:05:24;;;;;;;5.87;5.27;;;;;13.30;96790.00;;;;4976251;28;20223;-74
2023/06/15 01:08:15;;;;;;;5.73;5.13;;;;;13.20;96788.00;;;;4978013;28;20198;-74
2023/06/15 01:11:04;;;;;;;6.77;5.60;;;;;13.20;96789.00;;;;4977679;28;20617;-74
2023/06/15 01:13:55;;;;;;;5.63;5.13;;;;;13.20;96785.00;;;;4972646;28;20211;-74
2023/06/15 01:16:52;;;;;;;5.27;4.77;;;;;13.10;96788.00;;;;4977678;28;20207;-74
2023/06/15 01:19:57;;;;;;;5.97;5.10;;;;;13.00;96787.00;;;;4973141;28;20207;-74
2023/06/15 01:22:55;;;;;;;6.90;5.77;;;;;13.20;96786.00;;;;4978753;28;20198;-74
2023/06/15 01:25:57;;;;;;;7.83;6.27;;;;;13.50;96782.00;;;;4977513;28;20226;-74
2023/06/15 01:28:49;;;;;;;8.30;5.17;;;;;13.60;96787.00;;;;4974440;28;20202;-75
2023/06/15 01:31:39;;;;;;;5.80;5.30;;;;;13.60;96779.00;;;;4979615;28;20200;-74
2023/06/15 01:34:29;;;;;;;6.30;4.80;;;;;13.60;96780.00;;;;4977435;28;20223;-75
2023/06/15 01:37:18;;;;;;;6.83;5.10;;;;;13.30;96784.00;;;;4977332;28;20203;-74
2023/06/15 01:40:08;;;;;;;5.50;4.50;;;;;13.00;96772.00;;;;4975895;28;20201;-74
2023/06/15 01:42:59;;;;;;;8.13;5.13;;;;;12.60;96777.00;;;;4973257;28;20215;-74
2023/06/15 01:45:48;;;;;;;5.43;4.30;;;;;12.90;96768.00;;;;4977302;28;20718;-74
2023/06/15 01:48:38;;;;;;;5.53;4.80;;;;;13.20;96771.00;;;;4975880;28;20214;-74
2023/06/15 01:51:28;;;;;;;5.37;4.87;;;;;13.40;96768.00;;;;4974567;28;20566;-74
2023/06/15 01:54:17;;;;;;;5.90;5.00;;;;;13.40;96778.00;;;;4976530;28;20242;-74
2023/06/15 01:57:07;;;;;;;7.47;4.53;;;;;13.10;96767.00;;;;4975510;28;20217;-74
2023/06/15 01:59:57;;;;;;;6.77;5.10;;;;;12.80;96775.00;;;;4970957;28;20212;-73
2023/06/15 02:02:47;;;;;;;5.53;4.97;;;;;12.40;96766.00;;;;4974875;28;20694;-73
2023/06/15 02:05:39;;;;;;;7.57;6.30;;;;;12.50;96766.00;;;;4974869;28;20268;-73
2023/06/15 02:08:28;;;;;;;7.13;5.67;;;;;12.40;96761.00;;;;4974963;28;20245;-74
2023/06/15 02:11:18;;;;;;;6.63;5.73;;;;;12.50;96763.00;;;;4968792;28;20563;-73
2023/06/15 02:14:09;;;;;;;6.43;5.73;;;;;12.60;96780.00;;;;4969938;28;20202;-74
2023/06/15 02:17:00;;;;;;;5.40;4.87;;;;;12.40;96770.00;;;;4966351;28;20826;-73
2023/06/15 02:19:50;;;;;;;5.93;5.27;;;;;12.50;96770.00;;;;4975188;28;20195;-72
2023/06/15 02:22:39;;;;;;;5.87;5.23;;;;;12.20;96776.00;;;;4970030;28;20222;-74
2023/06/15 02:25:28;;;;;;;7.30;5.40;;;;;12.10;96775.00;;;;4968694;28;20216;-73
2023/06/15 02:28:17;;;;;;;7.20;5.67;;;;;12.20;96774.00;;;;4980304;28;20218;-74
2023/06/15 02:31:07;;;;;;;6.57;5.30;;;;;12.20;96766.00;;;;4978728;28;20217;-74
2023/06/15 02:33:57;;;;;;;5.77;5.27;;;;;12.60;96765.00;;;;4977146;28;20226;-73
2023/06/15 02:36:48;;;;;;;7.33;5.73;;;;;12.80;96777.00;;;;4976775;28;20276;-73
2023/06/15 02:39:37;;;;;;;8.40;5.43;;;;;13.00;96776.00;;;;4973123;28;20208;-73
2023/06/15 02:42:26;;;;;;;6.20;5.07;;;;;12.70;96762.00;;;;4970575;28;20212;-73
2023/06/15 02:45:15;;;;;;;5.63;5.13;;;;;12.60;96769.00;;;;4979998;28;20230;-73
2023/06/15 02:48:05;;;;;;;6.23;5.63;;;;;12.10;96773.00;;;;4982852;28;20207;-74
2023/06/15 02:50:56;;;;;;;6.20;5.37;;;;;12.20;96770.00;;;;4976958;28;20206;-74
2023/06/15 02:53:45;;;;;;;6.13;4.70;;;;;12.40;96763.00;;;;4973679;28;20218;-74
2023/06/15 02:56:36;;;;;;;6.20;4.97;;;;;12.50;96757.00;;;;4971153;28;20306;-73
2023/06/15 02:59:25;;;;;;;5.93;5.37;;;;;12.30;96754.00;;;;4975616;28;20202;-73
2023/06/15 03:02:15;;;;;;;6.43;5.50;;;;;12.30;96759.00;;;;4973984;28;20207;-73
2023/06/15 03:05:04;;;;;;;7.17;5.60;;;;;12.40;96774.00;;;;4979052;28;20270;-74
2023/06/15 03:07:54;;;;;;;6.50;5.57;;;;;12.40;96766.00;;;;4971189;28;20203;-73
2023/06/15 03:10:44;;;;;;;5.57;5.07;;;;;12.00;96763.00;;;;4970805;28;20211;-73
2023/06/15 03:13:33;;;;;;;6.80;5.00;;;;;11.80;96758.00;;;;4968802;28;20207;-72
2023/06/15 03:16:25;;;;;;;6.03;5.43;;;;;11.90;96769.00;;;;4977191;28;20196;-73
2023/06/15 03:19:15;;;;;;;6.67;5.10;;;;;11.90;96772.00;;;;4971803;28;20207;-73
2023/06/15 03:22:07;;;;;;;7.63;5.37;;;;;12.00;96774.00;;;;4976893;28;20255;-73
2023/06/15 03:24:59;;;;;;;7.67;6.40;;;;;11.80;96776.00;;;;4977282;28;20663;-73
2023/06/15 03:27:49;;;;;;;8.73;6.40;;;;;12.20;96774.00;;;;4975807;28;20825;-74
2023/06/15 03:30:40;;;;;;;9.77;6.53;;;;;12.60;96775.00;;;;4976477;28;20208;-73
2023/06/15 03:33:29;;;;;;;9.03;6.27;;;;;12.70;96778.00;;;;4974127;28;20211;-74
2023/06/15 03:36:19;;;;;;;6.03;5.43;;;;;12.50;96785.00;;;;4969941;28;20215;-73
2023/06/15 03:39:09;;;;;;;6.43;4.97;;;;;12.20;96782.00;;;;4977624;28;20210;-74
2023/06/15 03:41:59;;;;;;;7.03;6.30;;;;;12.00;96796.00;;;;4977053;28;20292;-74
2023/06/15 03:44:48;;;;;;;6.10;5.60;;;;;12.10;96788.00;;;;4967540;28;20232;-72
2023/06/15 03:47:37;;;;;;;7.27;6.27;;;;;11.90;96789.00;;;;4966912;28;20231;-73
2023/06/15 03:50:26;;;;;;;7.60;5.80;;;;;12.20;96787.00;;;;4978763;28;20204;-73
2023/06/15 03:53:16;;;;;;;6.63;5.33;;;;;11.90;96790.00;;;;4978134;28;20214;-73
2023/06/15 03:56:05;;;;;;;7.03;6.30;;;;;12.30;96794.00;;;;4977334;28;20225;-73
2023/06/15 03:58:55;;;;;;;6.33;5.63;;;;;12.60;96796.00;;;;4979353;28;20553;-73
2023/06/15 04:01:45;;;;;;;7.90;5.87;;;;;12.30;96799.00;;;;4979597;28;20199;-72
2023/06/15 04:04:34;;;;;;;6.63;5.77;;;;;12.10;96797.00;;;;4973107;28;20240;-73
2023/06/15 04:07:24;;;;;;;10.47;5.57;;;;;12.30;96798.00;;;;4974235;28;20230;-73
2023/06/15 04:10:13;;;;;;;7.80;6.17;;;;;12.50;96807.00;;;;4978180;28;20210;-74
2023/06/15 04:13:02;;;;;;;7.00;6.40;;;;;12.90;96795.00;;;;4968523;28;20222;-74
2023/06/15 04:15:53;;;;;;;7.17;6.20;;;;;13.10;96800.00;;;;4962746;28;21113;-74
2023/06/15 04:18:42;;;;;;;6.63;5.93;;;;;13.10;96803.00;;;;4968424;28;20253;-73
2023/06/15 04:21:32;;;;;;;6.97;5.47;;;;;13.00;96804.00;;;;4960264;28;20258;-72
2023/06/15 04:24:21;;;;;;;6.93;5.83;;;;;13.20;96807.00;;;;4978606;28;20230;-73
2023/06/15 04:27:12;;;;;;;7.60;6.47;;;;;13.40;96807.00;;;;4970906;28;20695;-74
2023/06/15 04:30:01;;;;;;;6.07;5.57;;;;;13.30;96805.00;;;;4966056;28;20208;-74
2023/06/15 04:32:57;;;;;;;7.83;6.50;;;;;13.40;96805.00;;;;4971255;28;20207;-72
2023/06/15 04:35:46;;;;;;;7.10;6.30;;;;;13.60;96813.00;;;;4986436;28;20225;-74
2023/06/15 04:38:36;;;;;;;7.23;6.17;;;;;13.60;96808.00;;;;4969750;28;20202;-72
2023/06/15 04:41:29;;;;;;;6.80;5.57;;;;;13.90;96814.00;;;;4968963;28;20214;-74
2023/06/15 04:44:18;;;;;;;5.97;5.37;;;;;14.20;96813.00;;;;4969124;28;20293;-73
2023/06/15 04:47:08;;;;;;;7.57;5.80;;;;;13.90;96808.00;;;;4969876;28;20631;-74
2023/06/15 04:49:58;;;;;;;5.30;4.80;;;;;13.70;96814.00;;;;4975002;28;20853;-71
2023/06/15 04:52:48;;;;;;;6.03;5.47;;;;;13.90;96826.00;;;;4971303;28;20649;-74
2023/06/15 04:55:37;;;;;;;7.90;5.77;;;;;13.90;96827.00;;;;4985480;28;20218;-73
2023/06/15 04:58:26;;;;;;;8.03;6.10;;;;;14.00;96818.00;;;;4981298;28;20198;-72
2023/06/15 05:01:15;;;;;;;6.43;5.83;;;;;14.40;96834.00;;;;4976013;28;20230;-73
2023/06/15 05:04:05;;;;;;;9.77;5.10;;;;;14.40;96832.00;;;;4969624;28;20300;-74
2023/06/15 05:06:55;;;;;;;5.53;5.03;;;;;14.50;96831.00;;;;4966732;28;20704;-74
2023/06/15 05:09:45;;;;;;;5.70;5.10;;;;;14.60;96827.00;;;;4967223;28;20200;-74
2023/06/15 05:12:35;;;;;;;6.73;6.00;;;;;14.60;96823.00;;;;4964867;28;20591;-74
2023/06/15 05:15:24;;;;;;;5.77;4.97;;;;;14.60;96835.00;;;;4967881;28;20457;-73
2023/06/15 05:18:13;;;;;;;6.33;5.73;;;;;14.70;96831.00;;;;4967067;28;20581;-74
2023/06/15 05:21:02;;;;;;;5.90;5.00;;;;;14.60;96831.00;;;;4966240;28;20199;-73
2023/06/15 05:23:53;;;;;;;6.73;6.13;;;;;14.90;96838.00;;;;4964514;28;20673;-74
2023/06/15 05:26:42;;;;;;;5.87;5.27;;;;;15.00;96839.00;;;;4965810;28;20275;-74
2023/06/15 05:29:31;;;;;;;8.37;5.93;;;;;15.00;96850.00;;;;4965175;28;20270;-74
2023/06/15 05:32:20;;;;;;;5.63;5.13;;;;;15.10;96845.00;;;;4968088;28;20941;-74
2023/06/15 05:35:10;;;;;;;8.27;5.37;;;;;15.20;96849.00;;;;4967326;28;20234;-74
2023/06/15 05:37:59;;;;;;;6.77;5.50;;;;;15.30;96851.00;;;;4964704;28;20568;-74
2023/06/15 05:40:49;;;;;;;5.63;5.10;;;;;15.30;96847.00;;;;4968039;28;20210;-74
2023/06/15 05:43:38;;;;;;;11.30;5.47;;;;;15.40;96842.00;;;;4978902;28;20226;-74
2023/06/15 05:46:28;;;;;;;8.03;5.83;;;;;15.30;96857.00;;;;4972172;28;20846;-74
2023/06/15 05:49:17;;;;;;;8.30;5.07;;;;;15.40;96858.00;;;;4966602;28;20207;-74
2023/06/15 05:52:07;;;;;;;6.93;6.00;;;;;15.70;96860.00;;;;4984320;28;20207;-74
2023/06/15 05:54:56;;;;;;;6.17;5.57;;;;;16.10;96862.00;;;;4976078;28;20218;-74
2023/06/15 05:57:46;;;;;;;7.33;5.87;;;;;16.20;96859.00;;;;4971547;28;20549;-74
2023/06/15 06:00:35;;;;;;;8.90;5.37;;;;;16.30;96877.00;;;;4981548;28;20680;-75
2023/06/15 06:03:25;;;;;;;6.93;5.87;;;;;16.30;96879.00;;;;4979995;28;20207;-75
2023/06/15 06:06:14;;;;;;;11.93;5.17;;;;;16.50;96878.00;;;;4966555;28;20576;-75
2023/06/15 06:09:03;;;;;;;10.03;5.77;;;;;16.70;96888.00;;;;4976620;28;20696;-75
2023/06/15 06:11:52;;;;;;;6.57;5.47;;;;;16.70;96882.00;;;;4975305;28;20196;-74
2023/06/15 06:14:43;;;;;;;5.47;4.53;;;;;16.50;96887.00;;;;4977423;28;20219;-74
2023/06/15 06:17:32;;;;;;;11.83;5.10;;;;;16.40;96881.00;;;;4976248;28;20195;-74
2023/06/15 06:20:31;;;;;;;7.97;5.53;;;;;16.40;96895.00;;;;4968110;28;20203;-75
2023/06/15 06:23:20;;;;;;;8.57;5.90;;;;;16.40;96892.00;;;;4975784;28;20218;-75
2023/06/15 06:26:10;;;;;;;6.00;5.23;;;;;16.70;96898.00;;;;4985875;28;20222;-74
2023/06/15 06:28:59;;;;;;;6.57;5.13;;;;;17.10;96894.00;;;;4982714;28;20230;-74
2023/06/15 06:31:50;;;;;;;5.37;4.77;;;;;17.10;96910.00;;;;4968896;28;20199;-74
2023/06/15 06:34:39;;;;;;;5.33;4.83;;;;;17.40;96896.00;;;;4975503;28;20227;-75
2023/06/15 06:37:28;;;;;;;5.67;4.73;;;;;17.30;96906.00;;;;4971515;28;20206;-75
2023/06/15 06:40:17;;;;;;;5.57;4.70;;;;;17.20;96907.00;;;;4969476;28;20199;-75
2023/06/15 06:43:06;;;;;;;6.83;4.67;;;;;16.60;96902.00;;;;4964366;28;20701;-75
2023/06/15 06:45:55;;;;;;;5.80;4.23;;;;;16.90;96899.00;;;;4964085;28;20241;-75
2023/06/15 06:48:46;;;;;;;8.20;4.60;;;;;17.20;96907.00;;;;4973879;28;20234;-74
2023/06/15 06:51:36;;;;;;;4.13;3.73;;;;;17.30;96898.00;;;;4969262;28;20203;-74
2023/06/15 06:54:25;;;;;;;8.90;5.43;;;;;17.00;96893.00;;;;4975478;28;20309;-74
2023/06/15 06:57:14;;;;;;;7.70;5.17;;;;;17.30;96900.00;;;;4976826;28;20218;-74
2023/06/15 07:00:03;;;;;;;6.23;4.40;;;;;17.20;96890.00;;;;4970777;28;20230;-74
2023/06/15 07:02:53;;;;;;;9.73;4.57;;;;;17.20;96903.00;;;;4977486;28;20210;-74
2023/06/15 07:05:43;;;;;;;6.13;4.17;;;;;17.30;96898.00;;;;4976950;28;20230;-74
2023/06/15 07:08:32;;;;;;;7.50;4.60;;;;;17.10;96889.00;;;;4976638;28;20265;-75
2023/06/15 07:11:22;;;;;;;8.10;4.60;;;;;17.40;96883.00;;;;4966906;28;20207;-74
2023/06/15 07:14:12;;;;;;;6.50;5.50;;;;;17.60;96891.00;;;;4966010;28;20623;-74
2023/06/15 07:17:01;;;;;;;7.23;5.47;;;;;17.80;96893.00;;;;4981395;28;20739;-73
2023/06/15 07:19:51;;;;;;;10.03;5.20;;;;;17.70;96899.00;;;;4978662;28;20693;-75
2023/06/15 07:22:42;;;;;;;5.83;4.43;;;;;18.20;96897.00;;;;4979117;28;20203;-75
2023/06/15 07:25:31;;;;;;;6.03;4.40;;;;;18.90;96893.00;;;;4974860;28;21026;-75
2023/06/15 07:28:21;;;;;;;5.20;4.50;;;;;19.30;96898.00;;;;4979168;28;20222;-75
2023/06/15 07:31:10;;;;;;;7.23;5.10;;;;;18.90;96898.00;;;;4978419;28;20198;-75
2023/06/15 07:34:00;;;;;;;5.53;4.93;;;;;19.20;96896.00;;;;4979668;28;20213;-75
2023/06/15 07:36:50;;;;;;;8.37;4.70;;;;;19.60;96907.00;;;;4979259;28;20210;-75
2023/06/15 07:39:40;;;;;;;5.73;4.23;;;;;19.80;96896.00;;;;4972466;28;20699;-75
2023/06/15 07:42:30;;;;;;;6.93;4.13;;;;;19.90;96898.00;;;;4977657;28;20265;-75
2023/06/15 07:47:59;;;;;;;6.57;5.20;;;;;20.50;96878.00;;;;5083326;27;20688;-73
2023/06/15 07:50:48;;;;;;;5.17;4.47;;;;;20.90;96883.00;;;;5095964;28;20230;-73
2023/06/15 07:53:38;;;;;;;5.57;4.07;;;;;21.20;96898.00;;;;5085592;28;20253;-73
2023/06/15 07:56:28;;;;;;;10.67;5.77;;;;;21.20;96890.00;;;;5105273;27;20684;-74
2023/06/15 07:59:17;;;;;;;4.53;3.80;;;;;21.50;96890.00;;;;5120292;27;20217;-73
2023/06/15 08:02:06;;;;;;;6.40;4.60;;;;;21.80;96888.00;;;;5125765;27;20206;-74
2023/06/15 08:04:57;;;;;;;11.87;4.53;;;;;21.90;96901.00;;;;5127311;27;20584;-75
2023/06/15 08:07:46;;;;;;;5.13;4.10;;;;;22.30;96887.00;;;;5120895;28;20606;-75
2023/06/15 08:10:35;;;;;;;8.43;4.13;;;;;22.50;96894.00;;;;5124358;28;20194;-75
2023/06/15 08:13:24;;;;;;;5.97;4.30;;;;;22.70;96901.00;;;;5125355;28;20270;-74
2023/06/15 08:16:13;;;;;;;5.10;4.10;;;;;22.70;96898.00;;;;5120747;28;20243;-76
2023/06/15 08:19:02;;;;;;;4.47;3.37;;;;;23.10;96892.00;;;;5123535;28;20202;-75
2023/06/15 08:21:52;;;;;;;3.63;3.33;;;;;23.30;96890.00;;;;5124283;28;20221;-75
2023/06/15 08:24:42;;;;;;;4.23;3.83;;;;;23.20;96886.00;;;;5125015;28;20221;-75
2023/06/15 08:27:31;;;;;;;8.80;4.13;;;;;23.70;96884.00;;;;5125065;27;20246;-75
2023/06/15 08:30:20;;;;;;;4.50;4.10;;;;;24.00;96895.00;;;;5122695;28;20209;-74
2023/06/15 08:33:10;;;;;;;6.67;3.73;;;;;23.80;96899.00;;;;5124722;28;20220;-74
2023/06/15 08:35:59;;;;;;;4.50;4.10;;;;;23.90;96895.00;;;;5123469;28;20225;-74
2023/06/15 08:38:50;;;;;;;5.90;4.33;;;;;24.20;96886.00;;;;5121734;28;20206;-74
2023/06/15 08:41:40;;;;;;;4.80;4.00;;;;;24.30;96889.00;;;;5123951;28;20293;-74
2023/06/15 08:44:29;;;;;;;5.23;4.13;;;;;24.20;96879.00;;;;5124089;28;20263;-74
2023/06/15 08:47:18;;;;;;;7.60;4.20;;;;;24.50;96876.00;;;;5120088;28;20270;-75
2023/06/15 08:50:09;;;;;;;5.10;3.70;;;;;25.30;96873.00;;;;5124385;28;20560;-74
2023/06/15 08:52:59;;;;;;;4.50;3.60;;;;;25.30;96867.00;;;;5123250;28;20559;-74
2023/06/15 08:55:49;;;;;;;4.27;3.87;;;;;25.80;96883.00;;;;5124280;28;20220;-75
2023/06/15 08:58:39;;;;;;;5.53;3.53;;;;;25.80;96871.00;;;;5113789;28;20203;-74
2023/06/15 09:01:29;;;;;;;5.57;4.00;;;;;26.10;96872.00;;;;5107911;28;20676;-75
2023/06/15 09:04:19;;;;;;;8.57;3.90;;;;;25.50;96873.00;;;;5106968;28;20713;-74
2023/06/15 09:07:09;;;;;;;4.53;3.63;;;;;24.20;96871.00;;;;5108179;28;20264;-73
2023/06/15 09:10:14;;;;;;;4.33;3.93;;;;;24.60;96873.00;;;;5115497;27;20586;-74
2023/06/15 09:13:05;;;;;;;4.30;3.90;;;;;25.90;96866.00;;;;5129798;27;20216;-74
2023/06/15 09:16:00;;;;;;;4.60;3.27;;;;;25.80;96871.00;;;;5129648;27;20613;-74
2023/06/15 09:18:51;;;;;;;5.00;3.60;;;;;24.60;96865.00;;;;5128415;27;20585;-73
2023/06/15 09:21:42;;;;;;;4.23;3.83;;;;;25.40;96876.00;;;;5126899;27;20209;-73
2023/06/15 09:24:31;;;;;;;7.30;3.77;;;;;25.70;96865.00;;;;5124578;27;20680;-73
2023/06/15 09:27:21;;;;;;;5.30;3.90;;;;;26.20;96858.00;;;;5101373;28;20637;-73
2023/06/15 09:30:14;;;;;;;6.17;3.70;;;;;26.50;96859.00;;;;5107816;28;20194;-74
2023/06/15 09:33:12;;;;;;;5.60;3.13;;;;;26.00;96859.00;;;;5100308;28;20214;-74
2023/06/15 09:36:02;;;;;;;3.87;3.57;;;;;26.60;96856.00;;;;5098411;28;20218;-75
2023/06/15 09:38:54;;;;;;;4.57;3.30;;;;;27.30;96842.00;;;;5122786;27;20201;-75
2023/06/15 09:41:53;;;;;;;4.87;3.50;;;;;27.70;96846.00;;;;5121663;27;20600;-75
2023/06/15 09:44:44;;;;;;;5.37;3.30;;;;;28.40;96836.00;;;;5129359;27;20205;-75
2023/06/15 09:47:35;;;;;;;4.97;3.10;;;;;28.60;96836.00;;;;5118753;27;20283;-74
2023/06/15 09:50:29;;;;;;;4.87;3.33;;;;;25.70;96837.00;;;;5118643;27;20197;-72
2023/06/15 09:53:19;;;;;;;6.17;4.10;;;;;25.90;96830.00;;;;5117665;27;20207;-70
2023/06/15 09:56:09;;;;;;;4.90;3.53;;;;;25.10;96844.00;;;;5124470;27;20222;-70
2023/06/15 09:59:08;;;;;;;3.90;3.50;;;;;23.10;96843.00;;;;5119740;27;20711;-71
2023/06/15 10:02:00;;;;;;;4.27;3.50;;;;;23.00;96833.00;;;;5110438;27;20213;-73
2023/06/15 10:04:51;;;;;;;4.30;3.13;;;;;22.90;96832.00;;;;5099321;27;20283;-74
2023/06/15 10:07:40;;;;;;;3.60;3.30;;;;;23.30;96823.00;;;;5106852;27;20229;-75
2023/06/15 10:10:30;;;;;;;3.73;3.07;;;;;23.20;96826.00;;;;5093629;28;20199;-72
2023/06/15 10:13:23;;;;;;;4.10;3.57;;;;;23.30;96832.00;;;;5092603;28;20203;-75
2023/06/15 10:16:16;;;;;;;4.83;3.20;;;;;23.60;96832.00;;;;5094965;28;20211;-74
2023/06/15 10:19:10;;;;;;;4.43;3.67;;;;;23.80;96830.00;;;;5106450;28;20243;-75
2023/06/15 10:22:01;;;;;;;3.67;3.20;;;;;23.70;96826.00;;;;5100856;28;20199;-72
2023/06/15 10:24:51;;;;;;;4.43;3.60;;;;;23.40;96816.00;;;;5108234;28;20650;-73
2023/06/15 10:27:40;;;;;;;4.07;3.37;;;;;24.40;96792.00;;;;5104602;28;20636;-73
2023/06/15 10:30:34;;;;;;;5.17;4.20;;;;;26.70;96810.00;;;;5103080;28;20203;-74
2023/06/15 10:33:27;;;;;;;4.83;3.60;;;;;25.40;96815.00;;;;5108648;28;20198;-75
2023/06/15 10:36:21;;;;;;;3.60;3.13;;;;;24.90;96816.00;;;;5106951;28;20222;-74
2023/06/15 10:39:15;;;;;;;4.53;2.83;;;;;26.10;96826.00;;;;5104083;28;20661;-74
2023/06/15 10:42:08;;;;;;;4.67;3.70;;;;;26.80;96787.00;;;;5107655;28;20289;-74
2023/06/15 10:45:00;;;;;;;3.93;3.53;;;;;25.50;96801.00;;;;5106642;28;20207;-75
2023/06/15 10:47:49;;;;;;;3.50;2.83;;;;;25.00;96759.00;;;;5104916;28;20308;-75
2023/06/15 10:50:40;;;;;;;4.60;3.77;;;;;26.60;96802.00;;;;5106501;28;20212;-76
2023/06/15 10:53:34;;;;;;;3.57;3.20;;;;;27.10;96787.00;;;;5106901;28;20198;-75
2023/06/15 10:56:28;;;;;;;7.97;3.47;;;;;27.40;96804.00;;;;5105438;28;20211;-75
2023/06/15 10:59:28;;;;;;;3.60;3.07;;;;;26.80;96742.00;;;;5105071;28;20263;-74
2023/06/15 11:02:47;;;;;;;3.43;3.13;;;;;28.10;96811.00;;;;5107336;28;20221;-75
2023/06/15 11:05:45;;;;;;;3.33;3.03;;;;;27.90;96800.00;;;;5106877;28;20674;-75
2023/06/15 11:08:46;;;;;;;3.70;3.40;;;;;27.20;96807.00;;;;5104956;28;20642;-75
2023/06/15 11:11:38;;;;;;;5.20;4.07;;;;;26.40;96806.00;;;;5101631;28;20211;-75
2023/06/15 11:14:27;;;;;;;4.23;3.60;;;;;26.70;96753.00;;;;5107113;28;20672;-73
2023/06/15 11:17:21;;;;;;;3.43;3.13;;;;;27.90;96763.00;;;;5104909;28;20219;-73
2023/06/15 11:20:43;;;;;;;5.30;3.70;;;;;27.90;96761.00;;;;5100733;28;20247;-73
2023/06/15 11:23:34;;;;;;;3.43;2.90;;;;;29.60;96759.00;;;;5102756;28;20225;-73
2023/06/15 11:26:23;;;;;;;3.77;3.27;;;;;30.60;96759.00;;;;5102579;28;20202;-73
2023/06/15 11:29:15;;;;;;;5.90;3.37;;;;;30.70;96758.00;;;;5103215;28;20234;-73
2023/06/15 11:32:06;;;;;;;6.70;3.20;;;;;31.00;96758.00;;;;5095291;28;20201;-74
2023/06/15 11:34:57;;;;;;;4.93;3.10;;;;;31.60;96759.00;;;;5107393;28;20622;-74
2023/06/15 11:37:47;;;;;;;6.97;3.60;;;;;31.30;96752.00;;;;5108258;28;20279;-76
2023/06/15 11:40:36;;;;;;;5.90;3.40;;;;;31.30;96759.00;;;;5106456;28;20194;-74
2023/06/15 11:43:25;;;;;;;4.43;3.53;;;;;31.20;96752.00;;;;5103174;28;20202;-73
2023/06/15 11:46:17;;;;;;;3.73;3.03;;;;;30.80;96748.00;;;;5103931;28;20635;-75
2023/06/15 11:49:06;;;;;;;3.63;3.33;;;;;30.80;96739.00;;;;5099588;28;20274;-75
2023/06/15 11:51:58;;;;;;;5.70;3.73;;;;;31.60;96739.00;;;;5101976;28;20232;-75
2023/06/15 11:54:47;;;;;;;4.80;3.10;;;;;32.20;96740.00;;;;5103888;28;20190;-75
2023/06/15 11:57:40;;;;;;;5.45;3.63;;;;;33.10;96739.00;;;;5098590;28;20221;-75
2023/06/15 12:00:29;;;;;;;3.75;3.45;;;;;31.80;96731.00;;;;5103341;28;20275;-75
2023/06/15 12:03:20;;;;;;;4.93;3.55;;;;;32.30;96730.00;;;;5103808;28;20688;-75
2023/06/15 12:06:09;;;;;;;4.13;3.70;;;;;32.60;96720.00;;;;5107206;28;20691;-75
2023/06/15 12:08:58;;;;;;;4.07;2.97;;;;;33.00;96707.00;;;;5100953;28;20302;-75
2023/06/15 12:11:47;;;;;;;4.07;3.33;;;29.70;67.10;33.10;96758.00;;;;5102891;28;20314;-75
2023/06/15 12:14:43;;;;;;;4.40;4.00;;;29.60;68.00;32.20;96774.00;;;;5080142;28;20652;-74
2023/06/15 12:17:33;;;;;;;5.63;3.33;;;29.50;66.10;31.10;96784.00;;;;5084977;28;20741;-73
2023/06/15 12:20:29;;;;;;;3.03;2.80;;;28.90;67.10;29.50;96789.00;;;;5078940;28;20200;-73
2023/06/15 12:23:28;;;;;;;3.85;3.35;;;;;27.70;96786.00;;;;5090857;28;20197;-73
2023/06/15 12:26:19;;;;;;;4.32;3.70;;;;;27.40;96785.00;;;;5080890;28;20784;-73
2023/06/15 12:29:15;;;;;;;6.03;3.37;;;;;26.20;96776.00;;;;5082229;28;21790;-73
2023/06/15 12:32:05;;;;;;;3.80;3.47;;;;;25.60;96769.00;;;;5091773;28;20209;-73
2023/06/15 12:34:54;;;;;;;6.83;3.57;;;;;25.60;96787.00;;;;5085151;28;20579;-72
2023/06/15 12:37:44;;;;;;;9.70;4.00;;;;;25.40;96776.00;;;;5084795;28;20229;-72
2023/06/15 12:40:40;;;;;;;4.57;3.37;;;;;25.50;96771.00;;;;5086983;28;20202;-74
2023/06/15 12:43:30;;;;;;;4.80;3.40;;;;;25.20;96766.00;;;;5082017;28;20414;-72
2023/06/15 12:46:19;;;;;;;8.70;5.47;;;;;24.90;96758.00;;;;5079064;28;20282;-73
2023/06/15 12:49:10;;;;;;;3.97;3.37;;;;;24.80;96760.00;;;;5082979;28;20628;-72
2023/06/15 12:51:59;;;;;;;4.00;3.53;;;;;24.90;96760.00;;;;5079273;28;20196;-74
2023/06/15 12:54:50;;;;;;;4.97;3.90;;;;;24.90;96761.00;;;;5085709;28;20212;-74
2023/06/15 12:57:39;;;;;;;5.17;3.83;;;;;24.80;96750.00;;;;5090371;28;20227;-73
2023/06/15 13:00:28;;;;;;;4.10;3.70;;;;;24.70;96754.00;;;;5084273;28;20222;-72
2023/06/15 13:03:18;;;;;;;3.93;3.00;;;;;25.20;96752.00;;;;5086029;28;20196;-73
2023/06/15 13:06:07;;;;;;;4.50;3.97;;;;;25.50;96749.00;;;;5088381;28;20227;-74
2023/06/15 13:08:56;;;;;;;3.93;3.50;;;;;25.70;96752.00;;;;5091680;28;20264;-73
2023/06/15 13:11:47;;;;;;;4.63;4.03;;;;;26.10;96743.00;;;;5088473;28;20728;-73
2023/06/15 13:14:36;;;;;;;4.87;3.60;;;;;26.70;96742.00;;;;5090848;28;20203;-73
2023/06/15 13:17:26;;;;;;;4.87;3.83;;;;;27.10;96689.00;;;;5087143;28;20215;-74
2023/06/15 13:20:15;;;;;;;3.90;3.60;;;;;28.10;96728.00;;;;5088901;28;20207;-74
2023/06/15 13:23:04;;;;;;;4.20;3.80;;;;;28.50;96727.00;;;;5086481;28;20208;-74
2023/06/15 13:25:54;;;;;;;4.67;3.70;;;;;28.90;96731.00;;;;5089645;28;20222;-74
2023/06/15 13:28:44;;;;;;;3.73;3.03;;;;;28.80;96720.00;;;;5089456;28;20246;-74
2023/06/15 13:31:33;;;;;;;3.73;3.43;;;;;30.30;96712.00;;;;5084651;28;20580;-74
2023/06/15 13:34:24;;;;;;;4.23;3.83;;;;;31.80;96689.00;;;;5086414;28;20757;-75
2023/06/15 13:37:16;;;;;;;4.63;3.37;;;;;31.50;96735.00;;;;5087892;28;20218;-75
2023/06/15 13:40:07;;;;;;;3.23;2.93;;;27.50;73.50;31.00;96699.00;;;;5088545;28;20205;-75
2023/06/15 13:42:56;;;;;;;6.03;3.77;;;27.50;73.30;31.00;96716.00;;;;5087569;28;20207;-75
2023/06/15 13:48:29;;;;;;;4.32;3.92;;;27.70;71.00;29.80;96724.00;;;;5022857;28;20232;-75
2023/06/15 13:51:18;;;;;;;3.72;3.20;;;27.60;68.20;30.50;96731.00;;;;5023379;28;20634;-75
2023/06/15 13:54:08;;;;;;;3.33;3.13;;;27.50;68.60;30.40;96736.00;;;;5009004;28;20208;-76
2023/06/15 13:56:57;;;;;;;3.45;3.13;;;27.40;71.30;30.20;96745.00;;;;5032450;28;20223;-75
2023/06/15 13:59:45;;;;;;;4.80;3.53;;;27.30;72.40;29.70;96755.00;;;;5037196;28;20243;-75
2023/06/15 14:02:34;;;;;;;3.33;3.13;;;27.10;72.60;29.10;96757.00;;;;5029807;28;20247;-75
2023/06/15 14:05:25;;;;;;;3.90;2.90;;;;;28.60;96762.00;;;;5032065;28;20204;-75
2023/06/15 14:08:14;;;;;;;6.83;3.57;;;;;28.20;96764.00;;;;5028878;28;20275;-75
2023/06/15 14:11:03;;;;;;;4.30;3.80;;;;;27.90;96771.00;;;;5031784;28;20214;-75
2023/06/15 14:13:54;;;;;;;3.87;3.50;;;;;27.60;96767.00;;;;5026873;28;20222;-74